createdAt,value
2019-02-28T00:01:22.442Z,46.90
2019-02-28T00:03:51.393Z,59.33
2019-02-28T00:06:20.565Z,48.70
2019-02-28T00:08:51.075Z,50.67
2019-02-28T00:11:20.196Z,49.67
2019-02-28T00:13:49.144Z,52.07
2019-02-28T00:16:18.137Z,55.20
2019-02-28T00:18:49.472Z,49.20
2019-02-28T00:21:17.882Z,51.73
2019-02-28T00:23:46.889Z,52.27
2019-02-28T00:26:15.791Z,55.13
2019-02-28T00:28:44.631Z,46.60
2019-02-28T00:31:15.264Z,49.93
2019-02-28T00:33:44.846Z,49.27
2019-02-28T00:36:16.346Z,45.47
2019-02-28T00:38:44.880Z,49.40
2019-02-28T00:41:13.757Z,49.10
2019-02-28T00:43:42.667Z,49.87
2019-02-28T00:46:11.682Z,51.80
2019-02-28T00:48:40.597Z,52.70
2019-02-28T00:51:09.422Z,46.10
2019-02-28T00:53:38.425Z,53.17
2019-02-28T00:56:07.431Z,48.23
2019-02-28T00:58:36.245Z,48.87
2019-02-28T01:01:05.242Z,52.57
2019-02-28T01:03:34.066Z,50.83
2019-02-28T01:06:03.058Z,47.23
2019-02-28T01:08:31.874Z,48.07
2019-02-28T01:11:00.818Z,49.03
2019-02-28T01:13:29.753Z,48.67
2019-02-28T01:15:58.636Z,51.97
2019-02-28T01:18:27.491Z,51.90
2019-02-28T01:20:56.509Z,54.83
2019-02-28T01:23:34.642Z,54.93
2019-02-28T01:26:03.674Z,51.63
2019-02-28T01:28:32.538Z,60.73
2019-02-28T01:31:01.650Z,52.73
2019-02-28T01:33:30.518Z,63.50
2019-02-28T01:35:59.420Z,58.77
2019-02-28T01:38:28.318Z,57.77
2019-02-28T01:40:57.297Z,54.50
2019-02-28T01:43:28.773Z,54.40
2019-02-28T01:45:56.802Z,56.10
2019-02-28T01:48:25.730Z,65.70
2019-02-28T01:50:54.656Z,55.30
2019-02-28T01:53:23.543Z,56.50
2019-02-28T01:55:52.361Z,55.33
2019-02-28T01:58:21.222Z,55.90
2019-02-28T02:00:50.232Z,55.43
2019-02-28T02:03:19.050Z,58.47
2019-02-28T02:05:48.264Z,54.17
2019-02-28T02:08:18.730Z,54.90
2019-02-28T02:10:47.655Z,59.67
2019-02-28T02:13:16.534Z,59.23
2019-02-28T02:15:45.414Z,57.50
2019-02-28T02:18:14.334Z,61.93
2019-02-28T02:20:43.253Z,61.40
2019-02-28T02:23:12.130Z,60.17
2019-02-28T02:25:41.094Z,63.77
2019-02-28T02:28:10.066Z,65.40
2019-02-28T02:30:39.797Z,59.53
2019-02-28T02:33:14.075Z,56.77
2019-02-28T02:35:42.264Z,61.70
2019-02-28T02:38:09.743Z,63.17
2019-02-28T02:40:38.950Z,59.60
2019-02-28T02:43:07.965Z,62.70
2019-02-28T02:45:41.844Z,70.13
2019-02-28T02:48:07.389Z,60.27
2019-02-28T02:50:36.212Z,64.27
2019-02-28T02:53:06.433Z,68.03
2019-02-28T02:55:35.881Z,61.13
2019-02-28T02:58:04.862Z,64.50
2019-02-28T03:00:33.738Z,69.40
2019-02-28T03:03:06.132Z,73.77
2019-02-28T03:05:35.741Z,62.93
2019-02-28T03:08:04.063Z,61.20
2019-02-28T03:10:32.984Z,65.13
2019-02-28T03:13:04.923Z,61.40
2019-02-28T03:15:32.922Z,56.93
2019-02-28T03:18:01.740Z,64.87
2019-02-28T03:20:30.561Z,59.07
2019-02-28T03:23:02.168Z,60.90
2019-02-28T03:25:30.063Z,65.10
2019-02-28T03:27:58.976Z,69.23
2019-02-28T03:30:32.432Z,62.53
2019-02-28T03:32:58.610Z,67.93
2019-02-28T03:35:40.184Z,74.00
2019-02-28T03:37:58.241Z,66.53
2019-02-28T03:40:27.205Z,63.83
2019-02-28T03:42:56.203Z,69.40
2019-02-28T03:45:25.131Z,70.20
2019-02-28T03:47:58.360Z,68.13
2019-02-28T03:50:24.624Z,62.57
2019-02-28T03:52:53.458Z,72.43
2019-02-28T03:55:22.426Z,63.73
2019-02-28T03:57:51.351Z,62.27
2019-02-28T04:00:20.413Z,62.73
2019-02-28T04:02:56.604Z,67.43
2019-02-28T04:05:26.448Z,60.90
2019-02-28T04:07:53.593Z,72.00
2019-02-28T04:10:22.602Z,67.10
2019-02-28T04:12:51.809Z,66.73
2019-02-28T04:15:21.009Z,66.53
2019-02-28T04:17:49.978Z,66.03
2019-02-28T04:20:19.195Z,60.27
2019-02-28T04:22:48.166Z,72.70
2019-02-28T04:25:22.461Z,65.93
2019-02-28T04:27:47.879Z,68.30
2019-02-28T04:30:16.860Z,66.60
2019-02-28T04:32:45.662Z,66.73
2019-02-28T04:35:14.658Z,66.23
2019-02-28T04:37:46.470Z,66.27
2019-02-28T04:40:14.573Z,70.43
2019-02-28T04:42:43.409Z,67.77
2019-02-28T04:45:12.408Z,72.97
2019-02-28T04:47:41.766Z,71.37
2019-02-28T04:50:11.215Z,69.83
2019-02-28T04:52:40.176Z,66.37
2019-02-28T04:55:09.554Z,65.23
2019-02-28T04:57:38.434Z,65.27
2019-02-28T05:00:08.373Z,72.90
2019-02-28T05:02:37.263Z,67.53
2019-02-28T05:05:06.085Z,69.43
2019-02-28T05:07:35.064Z,71.37
2019-02-28T05:10:04.345Z,69.40
2019-02-28T05:12:36.137Z,69.07
2019-02-28T05:15:03.971Z,69.03
2019-02-28T05:17:32.957Z,68.43
2019-02-28T05:20:01.798Z,68.43
2019-02-28T05:22:30.722Z,74.13
2019-02-28T05:24:59.662Z,71.70
2019-02-28T05:27:34.963Z,74.50
2019-02-28T05:29:59.222Z,66.67
2019-02-28T05:32:28.030Z,62.80
2019-02-28T05:34:56.873Z,70.20
2019-02-28T05:37:25.805Z,72.97
2019-02-28T05:39:54.685Z,73.83
2019-02-28T05:42:24.121Z,71.23
2019-02-28T05:44:53.281Z,76.23
2019-02-28T05:47:22.164Z,73.47
2019-02-28T05:49:50.989Z,69.37
2019-02-28T05:52:19.876Z,71.20
2019-02-28T05:54:50.331Z,67.73
2019-02-28T05:57:19.658Z,72.57
2019-02-28T05:59:48.489Z,69.43
2019-02-28T06:02:18.936Z,71.20
2019-02-28T06:04:47.994Z,87.87
2019-02-28T06:07:16.984Z,75.83
2019-02-28T06:09:48.693Z,68.17
2019-02-28T06:12:16.456Z,74.23
2019-02-28T06:14:45.309Z,71.53
2019-02-28T06:17:14.246Z,77.13
2019-02-28T06:19:43.638Z,76.17
2019-02-28T06:22:13.158Z,86.80
2019-02-28T06:24:44.867Z,77.37
2019-02-28T06:27:12.654Z,70.93
2019-02-28T06:29:41.559Z,73.83
2019-02-28T06:32:10.450Z,76.93
2019-02-28T06:34:39.442Z,76.77
2019-02-28T06:37:09.984Z,65.93
2019-02-28T06:39:38.942Z,71.60
2019-02-28T06:42:07.749Z,65.23
2019-02-28T06:44:36.658Z,70.37
2019-02-28T06:47:05.475Z,60.43
2019-02-28T06:49:40.746Z,67.90
2019-02-28T06:52:05.155Z,62.37
2019-02-28T06:54:34.470Z,68.53
2019-02-28T06:57:03.396Z,66.47
2019-02-28T06:59:32.242Z,67.30
2019-02-28T07:02:01.151Z,67.70
2019-02-28T07:04:29.972Z,72.10
2019-02-28T07:06:58.816Z,61.53
2019-02-28T07:09:27.727Z,64.37
2019-02-28T07:11:56.848Z,63.30
2019-02-28T07:14:25.893Z,59.70
2019-02-28T07:16:55.208Z,64.33
2019-02-28T07:19:26.226Z,61.10
2019-02-28T07:21:54.714Z,64.50
2019-02-28T07:24:23.700Z,60.13
2019-02-28T07:26:53.090Z,63.33
2019-02-28T07:29:22.270Z,58.00
2019-02-28T07:31:51.180Z,61.50
2019-02-28T07:34:23.773Z,60.17
2019-02-28T07:36:50.791Z,60.30
2019-02-28T07:39:19.646Z,62.07
2019-02-28T07:41:48.634Z,58.67
2019-02-28T07:44:21.212Z,61.20
2019-02-28T07:46:48.126Z,68.07
2019-02-28T07:49:17.046Z,64.63
2019-02-28T07:51:45.943Z,59.93
2019-02-28T07:54:15.974Z,58.20
2019-02-28T07:56:45.401Z,62.33
2019-02-28T07:59:14.337Z,63.73
2019-02-28T08:01:43.138Z,71.50
2019-02-28T08:04:11.978Z,69.70
2019-02-28T08:06:40.894Z,71.60
2019-02-28T08:09:24.604Z,62.57
2019-02-28T08:11:55.702Z,66.67
2019-02-28T08:14:24.152Z,66.00
2019-02-28T08:16:53.226Z,68.77
2019-02-28T08:19:23.010Z,74.20
2019-02-28T08:21:52.834Z,76.70
2019-02-28T08:24:21.926Z,69.47
2019-02-28T08:26:53.583Z,69.13
2019-02-28T08:29:21.409Z,76.37
2019-02-28T08:31:50.292Z,67.47
2019-02-28T08:34:20.695Z,71.23
2019-02-28T08:36:49.946Z,69.67
2019-02-28T08:39:18.963Z,84.40
2019-02-28T08:41:49.592Z,67.50
2019-02-28T08:44:22.755Z,80.23
2019-02-28T08:46:49.039Z,66.80
2019-02-28T08:49:17.926Z,69.63
2019-02-28T08:51:46.830Z,74.00
2019-02-28T08:54:15.669Z,76.20
2019-02-28T08:56:46.163Z,76.40
2019-02-28T08:59:18.496Z,95.23
2019-02-28T09:01:45.802Z,86.47
2019-02-28T09:04:14.712Z,89.60
2019-02-28T09:06:43.560Z,90.60
2019-02-28T09:09:14.709Z,103.33
2019-02-28T09:11:44.171Z,91.53
2019-02-28T09:14:14.735Z,95.97
2019-02-28T09:16:44.005Z,98.60
2019-02-28T09:19:13.066Z,90.43
2019-02-28T09:21:42.039Z,96.70
2019-02-28T09:24:12.728Z,101.73
2019-02-28T09:26:41.662Z,104.57
2019-02-28T09:29:10.762Z,99.77
2019-02-28T09:31:39.836Z,95.97
2019-02-28T09:34:09.329Z,95.53
2019-02-28T09:36:38.435Z,97.20
2019-02-28T09:39:08.188Z,94.57
2019-02-28T09:41:40.205Z,112.80
2019-02-28T09:44:07.785Z,107.50
2019-02-28T09:46:36.702Z,106.03
2019-02-28T09:49:05.804Z,109.23
2019-02-28T09:51:34.929Z,113.30
2019-02-28T09:54:03.893Z,99.63
2019-02-28T09:56:32.918Z,113.87
2019-02-28T09:59:03.147Z,114.20
2019-02-28T10:01:32.469Z,106.93
2019-02-28T10:04:01.300Z,111.03
2019-02-28T10:06:30.140Z,119.27
2019-02-28T10:08:58.971Z,112.03
2019-02-28T10:11:31.186Z,113.07
2019-02-28T10:13:58.427Z,116.97
2019-02-28T10:16:27.398Z,114.90
2019-02-28T10:18:56.279Z,112.83
2019-02-28T10:21:25.442Z,112.73
2019-02-28T10:23:57.008Z,116.90
2019-02-28T10:26:25.102Z,120.20
2019-02-28T10:28:54.055Z,115.20
2019-02-28T10:31:35.205Z,113.80
2019-02-28T10:33:53.603Z,102.20
2019-02-28T10:36:22.734Z,109.50
2019-02-28T10:38:51.650Z,117.83
2019-02-28T10:41:20.512Z,105.73
2019-02-28T10:43:52.059Z,118.13
2019-02-28T10:46:20.296Z,117.63
2019-02-28T10:48:50.958Z,120.00
2019-02-28T10:51:20.085Z,129.10
2019-02-28T10:53:48.944Z,118.00
2019-02-28T10:56:17.873Z,116.30
2019-02-28T10:58:47.161Z,119.83
2019-02-28T11:01:18.010Z,121.00
2019-02-28T11:03:47.489Z,116.40
2019-02-28T11:06:16.462Z,123.27
2019-02-28T11:08:47.520Z,114.37
2019-02-28T11:11:16.374Z,115.67
2019-02-28T11:13:45.359Z,115.47
2019-02-28T11:16:14.313Z,117.73
2019-02-28T11:18:43.237Z,116.60
2019-02-28T11:21:12.673Z,122.37
2019-02-28T11:23:41.668Z,115.67
2019-02-28T11:26:10.696Z,110.10
2019-02-28T11:28:39.704Z,117.17
2019-02-28T11:31:11.090Z,108.23
2019-02-28T11:33:40.994Z,119.57
2019-02-28T11:36:09.843Z,113.97
2019-02-28T11:38:38.752Z,103.67
2019-02-28T11:41:07.737Z,95.13
2019-02-28T11:43:38.370Z,107.30
2019-02-28T11:46:08.211Z,112.67
2019-02-28T11:48:37.075Z,107.63
2019-02-28T11:51:05.898Z,102.53
2019-02-28T11:53:39.376Z,95.27
2019-02-28T11:56:05.577Z,98.70
2019-02-28T11:58:34.478Z,91.93
2019-02-28T12:01:03.882Z,102.43
2019-02-28T12:03:35.471Z,99.43
2019-02-28T12:06:03.401Z,110.60
2019-02-28T12:08:32.384Z,108.50
2019-02-28T12:11:01.865Z,114.13
2019-02-28T12:13:32.149Z,117.80
2019-02-28T12:16:01.058Z,123.60
2019-02-28T12:18:30.062Z,124.90
2019-02-28T12:21:01.763Z,120.07
2019-02-28T12:23:29.653Z,128.57
2019-02-28T12:25:58.716Z,122.87
2019-02-28T12:28:27.613Z,126.93
2019-02-28T12:30:57.217Z,120.37
2019-02-28T12:33:27.064Z,134.40
2019-02-28T12:35:56.111Z,133.43
2019-02-28T12:38:28.280Z,127.00
2019-02-28T12:40:56.188Z,122.53
2019-02-28T12:43:25.027Z,124.37
2019-02-28T12:45:56.933Z,127.43
2019-02-28T12:48:24.613Z,127.67
2019-02-28T12:50:53.495Z,124.03
2019-02-28T12:53:25.266Z,115.97
2019-02-28T12:55:53.273Z,119.10
2019-02-28T12:58:22.078Z,121.63
2019-02-28T13:00:51.373Z,121.30
2019-02-28T13:03:21.181Z,119.23
2019-02-28T13:05:50.160Z,103.90
2019-02-28T13:08:19.354Z,93.97
2019-02-28T13:10:48.310Z,89.90
2019-02-28T13:13:17.277Z,94.80
2019-02-28T13:15:46.830Z,89.83
2019-02-28T13:18:16.073Z,83.60
2019-02-28T13:20:44.971Z,84.13
2019-02-28T13:23:13.909Z,76.07
2019-02-28T13:25:42.821Z,77.10
2019-02-28T13:28:11.774Z,67.80
2019-02-28T13:30:45.084Z,61.93
2019-02-28T13:33:14.945Z,56.57
2019-02-28T13:35:47.137Z,55.33
2019-02-28T13:38:17.711Z,62.70
2019-02-28T13:40:44.699Z,55.60
2019-02-28T13:43:19.950Z,47.13
2019-02-28T13:45:44.560Z,48.67
2019-02-28T13:48:13.430Z,53.37
2019-02-28T13:50:42.350Z,42.10
2019-02-28T13:53:18.933Z,50.13
2019-02-28T13:55:41.954Z,42.63
2019-02-28T13:58:10.957Z,39.50
2019-02-28T14:00:44.274Z,38.80
2019-02-28T14:03:10.631Z,32.73
2019-02-28T14:05:41.450Z,36.90
2019-02-28T14:08:12.050Z,37.67
2019-02-28T14:10:41.746Z,28.23
2019-02-28T14:13:11.366Z,28.30
2019-02-28T14:15:42.224Z,25.67
2019-02-28T14:18:11.633Z,23.70
2019-02-28T14:20:41.028Z,24.03
2019-02-28T14:23:10.273Z,24.07
2019-02-28T14:25:39.685Z,21.53
2019-02-28T14:28:09.858Z,28.90
2019-02-28T14:30:38.791Z,22.10
2019-02-28T14:33:07.930Z,26.20
2019-02-28T14:35:38.641Z,25.93
2019-02-28T14:38:08.196Z,23.80
2019-02-28T14:40:37.131Z,30.97
2019-02-28T14:43:06.118Z,18.27
2019-02-28T14:45:35.519Z,22.80
2019-02-28T14:48:06.264Z,20.60
2019-02-28T14:50:35.167Z,16.43
2019-02-28T14:53:04.599Z,18.47
2019-02-28T14:55:33.713Z,22.87
2019-02-28T14:58:02.950Z,21.23
2019-02-28T15:00:32.231Z,26.03
2019-02-28T15:03:02.820Z,21.03
2019-02-28T15:05:32.017Z,20.20
2019-02-28T15:08:01.782Z,19.23
2019-02-28T15:10:34.178Z,28.73
2019-02-28T15:13:01.784Z,21.07
2019-02-28T15:15:30.690Z,25.47
2019-02-28T15:17:59.513Z,25.87
2019-02-28T15:20:31.784Z,21.70
2019-02-28T15:22:59.705Z,21.60
2019-02-28T15:25:28.649Z,26.73
2019-02-28T15:27:57.524Z,18.03
2019-02-28T15:30:30.429Z,16.43
2019-02-28T15:32:59.073Z,23.33
2019-02-28T15:35:28.138Z,16.77
2019-02-28T15:37:57.323Z,28.03
2019-02-28T15:40:28.840Z,17.50
2019-02-28T15:42:57.717Z,15.50
2019-02-28T15:45:27.003Z,18.70
2019-02-28T15:47:58.917Z,26.33
2019-02-28T15:50:27.697Z,24.03
2019-02-28T15:52:56.700Z,13.60
2019-02-28T15:55:26.017Z,13.53
2019-02-28T15:57:55.769Z,13.20
2019-02-28T16:00:28.540Z,13.87
2019-02-28T16:02:58.032Z,18.10
2019-02-28T16:05:27.732Z,12.20
2019-02-28T16:07:58.045Z,16.83
2019-02-28T16:10:31.928Z,16.77
2019-02-28T16:13:00.458Z,19.30
2019-02-28T16:15:29.770Z,13.97
2019-02-28T16:17:59.089Z,22.23
2019-02-28T16:20:28.459Z,11.40
2019-02-28T16:22:58.893Z,16.53
2019-02-28T16:25:29.692Z,19.00
2019-02-28T16:28:04.494Z,21.13
2019-02-28T16:30:33.821Z,16.40
2019-02-28T16:33:03.556Z,15.87
2019-02-28T16:35:32.623Z,19.37
2019-02-28T16:38:01.621Z,21.23
2019-02-28T16:40:30.638Z,16.20
2019-02-28T16:42:59.561Z,21.57
2019-02-28T16:45:31.357Z,20.47
2019-02-28T16:48:02.963Z,14.77
2019-02-28T16:50:32.453Z,19.33
2019-02-28T16:53:01.323Z,15.00
2019-02-28T16:55:31.076Z,29.67
2019-02-28T16:58:01.126Z,25.17
2019-02-28T17:00:30.319Z,21.03
2019-02-28T17:02:59.350Z,22.63
2019-02-28T17:05:28.582Z,16.07
2019-02-28T17:07:57.856Z,27.73
2019-02-28T17:10:32.078Z,30.10
2019-02-28T17:13:21.629Z,19.10
2019-02-28T17:16:02.613Z,18.03
2019-02-28T17:18:32.394Z,30.93
2019-02-28T17:21:01.316Z,24.77
2019-02-28T17:23:30.296Z,21.07
2019-02-28T17:25:59.379Z,16.80
2019-02-28T17:28:53.358Z,15.10
2019-02-28T17:31:31.400Z,17.83
2019-02-28T17:34:00.358Z,18.80
2019-02-28T17:36:29.430Z,23.63
2019-02-28T17:38:58.410Z,18.33
2019-02-28T17:41:27.453Z,20.27
2019-02-28T17:44:40.090Z,23.20
2019-02-28T17:47:44.724Z,28.43
2019-02-28T17:50:30.150Z,30.00
2019-02-28T17:53:24.224Z,22.80
2019-02-28T17:56:34.332Z,22.13
2019-02-28T17:59:36.158Z,18.37
2019-02-28T18:02:24.097Z,21.60
2019-02-28T18:05:30.190Z,20.53
2019-02-28T18:08:03.626Z,13.50
2019-02-28T18:10:49.261Z,18.43
2019-02-28T18:13:23.485Z,19.13
2019-02-28T18:16:27.606Z,16.83
2019-02-28T18:19:43.719Z,14.87
2019-02-28T18:22:40.105Z,19.00
2019-02-28T18:25:31.642Z,15.83
2019-02-28T18:28:46.578Z,14.00
2019-02-28T18:31:19.238Z,16.80
2019-02-28T18:34:10.059Z,19.03
2019-02-28T18:36:40.172Z,15.23
2019-02-28T18:39:11.592Z,21.97
2019-02-28T18:41:42.297Z,17.93
2019-02-28T18:44:11.347Z,12.60
2019-02-28T18:46:40.303Z,22.47
2019-02-28T18:49:09.337Z,13.10
2019-02-28T18:51:38.210Z,19.13
2019-02-28T18:54:07.097Z,18.60
2019-02-28T18:56:36.052Z,17.40
2019-02-28T18:59:05.178Z,25.10
2019-02-28T19:01:34.085Z,18.77
2019-02-28T19:04:03.467Z,23.10
2019-02-28T19:06:32.320Z,14.50
2019-02-28T19:09:01.407Z,20.93
2019-02-28T19:11:30.495Z,15.33
2019-02-28T19:13:59.372Z,19.07
2019-02-28T19:16:28.279Z,23.93
2019-02-28T19:18:57.102Z,18.90
2019-02-28T19:21:25.938Z,16.73
2019-02-28T19:23:54.937Z,21.70
2019-02-28T19:26:23.858Z,29.30
2019-02-28T19:28:52.704Z,22.90
2019-02-28T19:31:21.595Z,26.53
2019-02-28T19:33:50.471Z,26.60
2019-02-28T19:36:19.319Z,20.50
2019-02-28T19:38:48.214Z,20.37
2019-02-28T19:41:17.243Z,18.73
2019-02-28T19:43:46.169Z,26.57
2019-02-28T19:46:15.180Z,22.77
2019-02-28T19:48:44.167Z,24.20
2019-02-28T19:51:13.096Z,28.27
2019-02-28T19:53:42.032Z,34.83
2019-02-28T19:56:10.958Z,23.20
2019-02-28T19:58:39.827Z,26.70
2019-02-28T20:01:08.810Z,34.90
2019-02-28T20:03:37.783Z,26.77
2019-02-28T20:06:06.818Z,29.93
2019-02-28T20:08:35.978Z,24.37
2019-02-28T20:11:05.184Z,20.63
2019-02-28T20:13:34.080Z,28.37
2019-02-28T20:16:03.127Z,25.40
2019-02-28T20:18:32.013Z,22.97
2019-02-28T20:21:01.161Z,25.90
2019-02-28T20:23:30.193Z,30.87
2019-02-28T20:25:59.381Z,31.87
2019-02-28T20:28:28.301Z,30.73
2019-02-28T20:30:57.238Z,22.37
2019-02-28T20:33:26.226Z,41.97
2019-02-28T20:35:55.125Z,30.77
2019-02-28T20:38:23.978Z,28.37
2019-02-28T20:40:53.414Z,28.03
2019-02-28T20:43:22.358Z,36.37
2019-02-28T20:45:51.483Z,31.03
2019-02-28T20:48:20.385Z,30.47
2019-02-28T20:50:49.334Z,31.07
2019-02-28T20:53:18.259Z,26.30
2019-02-28T20:55:47.481Z,21.67
2019-02-28T20:58:16.532Z,25.33
2019-02-28T21:00:45.544Z,28.97
2019-02-28T21:03:14.506Z,27.03
2019-02-28T21:05:43.646Z,29.63
2019-02-28T21:08:12.699Z,28.57
2019-02-28T21:10:44.395Z,31.27
2019-02-28T21:13:13.374Z,29.87
2019-02-28T21:15:42.290Z,27.10
2019-02-28T21:18:11.192Z,26.70
2019-02-28T21:20:40.066Z,33.67
2019-02-28T21:23:08.922Z,32.43
2019-02-28T21:25:38.003Z,33.10
2019-02-28T21:28:07.054Z,27.17
2019-02-28T21:30:36.037Z,35.33
2019-02-28T21:33:05.181Z,27.40
2019-02-28T21:35:34.201Z,32.00
2019-02-28T21:38:03.306Z,28.30
2019-02-28T21:40:32.280Z,25.97
2019-02-28T21:43:01.208Z,27.67
2019-02-28T21:45:30.274Z,31.13
2019-02-28T21:47:59.259Z,28.53
2019-02-28T21:50:28.173Z,28.57
2019-02-28T21:52:57.127Z,32.03
2019-02-28T21:55:26.101Z,32.83
2019-02-28T21:57:55.063Z,34.53
2019-02-28T22:00:24.432Z,26.60
2019-02-28T22:02:53.433Z,35.27
2019-02-28T22:05:22.423Z,22.23
2019-02-28T22:07:51.405Z,34.00
2019-02-28T22:10:20.405Z,27.63
2019-02-28T22:12:49.331Z,24.13
2019-02-28T22:15:18.630Z,22.53
2019-02-28T22:17:47.677Z,31.60
2019-02-28T22:20:16.703Z,30.40
2019-02-28T22:22:45.713Z,23.80
2019-02-28T22:25:15.067Z,31.57
2019-02-28T22:27:43.959Z,21.97
2019-02-28T22:30:48.338Z,29.83
2019-02-28T22:33:25.242Z,26.37
2019-02-28T22:35:55.792Z,35.20
2019-02-28T22:38:24.703Z,28.60
2019-02-28T22:40:53.689Z,28.33
2019-02-28T22:43:22.559Z,26.40
2019-02-28T22:45:51.591Z,28.13
2019-02-28T22:48:20.571Z,30.33
2019-02-28T22:50:49.461Z,32.20
2019-02-28T22:53:18.458Z,29.73
2019-02-28T22:55:47.402Z,24.83
2019-02-28T22:58:16.359Z,33.33
2019-02-28T23:01:06.876Z,28.90
2019-02-28T23:03:36.070Z,33.97
2019-02-28T23:06:05.358Z,40.97
2019-02-28T23:08:34.425Z,27.63
2019-02-28T23:11:03.418Z,26.80
2019-02-28T23:13:32.364Z,29.23
2019-02-28T23:16:01.350Z,32.50
2019-02-28T23:18:30.157Z,32.03
2019-02-28T23:20:59.041Z,38.60
2019-02-28T23:23:27.866Z,29.70
2019-02-28T23:26:06.347Z,33.73
2019-02-28T23:28:37.397Z,31.60
2019-02-28T23:32:11.550Z,34.53
2019-02-28T23:34:46.699Z,35.30
2019-02-28T23:37:15.840Z,37.70
2019-02-28T23:39:45.139Z,34.90
2019-02-28T23:42:14.155Z,29.43
2019-02-28T23:44:43.124Z,26.63
2019-02-28T23:47:11.961Z,44.70
2019-02-28T23:49:40.768Z,31.10
2019-02-28T23:52:09.659Z,37.80
2019-02-28T23:54:38.533Z,32.80
2019-02-28T23:57:07.509Z,30.70
2019-02-28T23:59:36.314Z,36.73
